Time;durP1;ratioP1;P1;durP2;ratioP2;P2;SDS_P1;SDS_P2;PMS_P1;PMS_P2;Temp;Humidity;BMP_temperature;BMP_pressure;BME280_temperature;BME280_humidity;BME280_pressure;Samples;Min_cycle;Max_cycle;Signal;HPM_P1;HPM_P2
2022/05/28 00:00:41;;;;;;;12.30;11.37;;;;;;;8.87;96.15;101149.16;5033616;28;20471;-48
2022/05/28 00:03:08;;;;;;;14.50;11.80;;;;;;;8.87;95.83;101147.34;5033701;28;20440;-46
2022/05/28 00:05:36;;;;;;;14.13;13.03;;;;;;;8.83;97.02;101153.19;5033914;28;20433;-48
2022/05/28 00:08:05;;;;;;;12.60;11.67;;;;;;;8.84;97.30;101139.72;5033144;28;20468;-48
2022/05/28 00:10:33;;;;;;;12.93;11.97;;;;;;;8.82;97.02;101140.91;5033674;28;20432;-46
2022/05/28 00:13:03;;;;;;;11.97;11.17;;;;;;;8.78;97.04;101139.63;5033522;28;20438;-50
2022/05/28 00:15:30;;;;;;;11.83;11.23;;;;;;;8.71;96.63;101133.31;5033462;28;20438;-48
2022/05/28 00:17:58;;;;;;;11.80;10.70;;;;;;;8.65;96.18;101131.38;5032930;28;21014;-48
2022/05/28 00:20:27;;;;;;;10.60;9.83;;;;;;;8.58;95.15;101141.03;5033351;28;20428;-47
2022/05/28 00:22:54;;;;;;;11.73;11.00;;;;;;;8.62;95.61;101139.69;5033275;28;20479;-48
2022/05/28 00:25:22;;;;;;;16.23;10.73;;;;;;;8.58;95.15;101138.38;5033294;28;20431;-49
2022/05/28 00:27:50;;;;;;;10.97;10.20;;;;;;;8.61;95.56;101138.03;5032655;28;20822;-46
2022/05/28 00:30:19;;;;;;;12.53;11.93;;;;;;;8.64;96.55;101135.00;5033043;28;20917;-47
2022/05/28 00:32:47;;;;;;;11.23;10.50;;;;;;;8.60;95.86;101139.84;5033346;28;20436;-47
2022/05/28 00:35:16;;;;;;;18.03;13.00;;;;;;;8.63;96.83;101139.50;5032966;28;20436;-45
2022/05/28 00:37:45;;;;;;;14.80;13.60;;;;;;;8.66;97.35;101136.50;5032613;28;20985;-47
2022/05/28 00:40:16;;;;;;;13.83;12.60;;;;;;;8.74;97.79;101133.81;5032880;28;20433;-50
2022/05/28 00:42:44;;;;;;;12.53;11.73;;;;;;;8.71;97.26;101130.66;5032926;28;21353;-46
2022/05/28 00:45:12;;;;;;;14.00;12.40;;;;;;;8.72;97.13;101124.34;5033296;28;20435;-46
2022/05/28 00:47:46;;;;;;;13.50;12.47;;;;;;;8.73;97.16;101128.66;5032379;28;20468;-49
2022/05/28 00:50:15;;;;;;;13.90;12.67;;;;;;;8.73;97.56;101128.66;5032923;28;20438;-47
2022/05/28 00:52:43;;;;;;;13.97;12.70;;;;;;;8.72;97.55;101130.47;5032986;28;20490;-47
2022/05/28 00:55:10;;;;;;;13.60;12.60;;;;;;;8.72;98.26;101133.13;5032684;28;20793;-47
2022/05/28 00:57:40;;;;;;;15.23;13.93;;;;;;;8.72;98.03;101129.69;5032185;28;20495;-49
2022/05/28 01:00:09;;;;;;;15.37;13.90;;;;;;;8.72;97.90;101124.34;5032821;28;20432;-49
2022/05/28 01:02:48;;;;;;;14.63;13.53;;;;;;;8.72;98.53;101124.34;5032547;28;20995;-45
2022/05/28 01:05:24;;;;;;;14.00;13.00;;;;;;;8.71;98.32;101112.88;5032595;28;20428;-47
2022/05/28 01:08:02;;;;;;;15.50;14.30;;;;;;;8.70;98.47;101115.72;5031973;28;20468;-48
2022/05/28 01:10:38;;;;;;;17.43;14.53;;;;;;;8.66;98.44;101111.75;5032443;28;20428;-46
2022/05/28 01:13:10;;;;;;;15.17;13.60;;;;;;;8.64;98.54;101111.09;5032440;28;20886;-48
2022/05/28 01:15:43;;;;;;;15.30;14.30;;;;;;;8.61;98.22;101106.13;5032642;28;20432;-48
2022/05/28 01:18:18;;;;;;;19.30;14.90;;;;;;;8.61;98.63;101100.81;5032474;28;20917;-52
2022/05/28 01:20:50;;;;;;;16.70;15.40;;;;;;;8.60;98.56;101099.97;5032248;28;20431;-48
2022/05/28 01:23:29;;;;;;;17.00;15.40;;;;;;;8.61;98.53;101096.31;5032302;28;20476;-49
2022/05/28 01:26:05;;;;;;;15.70;14.60;;;;;;;8.65;98.70;101099.47;5031615;28;20866;-47
2022/05/28 01:28:39;;;;;;;17.80;15.07;;;;;;;8.67;98.39;101094.78;5032162;28;20430;-49
2022/05/28 01:31:08;;;;;;;15.63;14.43;;;;;;;8.70;98.37;101089.13;5032182;28;20439;-48
2022/05/28 01:33:39;;;;;;;14.60;13.80;;;;;;;8.72;98.44;101089.78;5032052;28;20432;-46
2022/05/28 01:36:09;;;;;;;16.60;14.97;;;;;;;8.71;98.81;101096.94;5031427;28;20459;-50
2022/05/28 01:38:39;;;;;;;17.40;15.07;;;;;;;8.72;98.73;101098.56;5032253;28;20420;-52
2022/05/28 01:41:08;;;;;;;16.30;14.43;;;;;;;8.70;99.17;101097.94;5031919;28;20940;-50
2022/05/28 01:43:41;;;;;;;16.10;14.70;;;;;;;8.71;99.38;101096.09;5031863;28;20468;-48
2022/05/28 01:46:11;;;;;;;15.50;14.67;;;;;;;8.79;99.04;101094.22;5030667;28;21048;-47
2022/05/28 01:48:42;;;;;;;16.10;14.83;;;;;;;8.78;99.18;101089.09;5031848;28;20431;-50
2022/05/28 01:51:14;;;;;;;20.07;18.10;;;;;;;8.81;98.91;101094.06;5031559;28;20467;-46
2022/05/28 01:56:28;;;;;;;18.00;16.30;;;;;;;8.85;98.87;101098.00;5031407;28;20468;-47
2022/05/28 01:58:57;;;;;;;15.87;14.77;;;;;;;8.79;98.86;101094.22;5031820;28;20433;-47
2022/05/28 02:01:25;;;;;;;16.70;15.00;;;;;;;8.80;98.86;101090.56;5031520;28;20431;-46
2022/05/28 02:03:57;;;;;;;15.20;14.17;;;;;;;8.77;98.70;101088.25;5031734;28;20440;-46
2022/05/28 02:06:25;;;;;;;14.77;13.80;;;;;;;8.77;98.15;101092.75;5031295;28;20837;-45
2022/05/28 02:08:55;;;;;;;15.70;14.10;;;;;;;8.75;97.44;101097.41;5031637;28;20439;-50
2022/05/28 02:11:26;;;;;;;15.13;13.80;;;;;;;8.75;97.03;101094.75;5031469;28;20444;-51
2022/05/28 02:14:13;;;;;;;13.87;12.77;;;;;;;8.76;96.80;101094.56;5031707;28;20424;-48
2022/05/28 02:16:49;;;;;;;13.67;12.70;;;;;;;8.78;96.60;101095.22;5031131;28;20551;-47
2022/05/28 02:19:26;;;;;;;19.93;12.80;;;;;;;8.80;95.85;101097.72;5031662;28;20420;-49
2022/05/28 02:22:01;;;;;;;13.40;12.33;;;;;;;8.87;95.72;101096.81;5031302;28;20438;-47
2022/05/28 02:24:34;;;;;;;12.43;11.50;;;;;;;8.88;94.26;101089.66;5031558;28;20430;-46
2022/05/28 02:27:07;;;;;;;13.10;11.80;;;;;;;8.96;94.21;101089.59;5031089;28;20779;-47
2022/05/28 02:29:36;;;;;;;12.33;11.33;;;;;;;8.99;93.36;101099.09;5031659;28;20421;-46
2022/05/28 02:32:13;;;;;;;11.37;10.77;;;;;;;9.02;92.49;101096.88;5031314;28;20433;-49
2022/05/28 02:34:41;;;;;;;13.07;11.77;;;;;;;9.08;92.82;101098.81;5031699;28;20759;-49
2022/05/28 02:37:08;;;;;;;17.80;11.10;;;;;;;9.05;92.27;101082.41;5030661;28;20474;-47
2022/05/28 02:39:36;;;;;;;12.00;11.10;;;;;;;9.05;92.75;101095.72;5031587;28;20432;-49
2022/05/28 02:42:04;;;;;;;10.83;9.80;;;;;;;9.00;91.53;101098.06;5031227;28;20436;-47
2022/05/28 02:44:32;;;;;;;12.40;11.20;;;;;;;9.04;93.03;101097.53;5031426;28;20432;-50
2022/05/28 02:47:01;;;;;;;14.37;11.60;;;;;;;9.08;93.70;101098.81;5031042;28;20464;-46
2022/05/28 02:49:29;;;;;;;11.57;10.97;;;;;;;9.05;92.63;101109.81;5031269;28;20434;-47
2022/05/28 02:51:56;;;;;;;11.33;10.47;;;;;;;8.99;91.95;101099.88;5030997;28;20446;-50
2022/05/28 02:54:24;;;;;;;16.83;11.67;;;;;;;9.01;92.54;101103.22;5031391;28;20437;-48
2022/05/28 02:56:51;;;;;;;12.20;11.07;;;;;;;9.03;92.57;101109.16;5030999;28;20470;-50
2022/05/28 02:59:19;;;;;;;17.50;10.87;;;;;;;9.01;92.20;101103.22;5035006;28;20428;-50
2022/05/28 03:01:47;;;;;;;11.90;11.30;;;;;;;9.04;92.71;101102.03;5034714;28;20435;-46
2022/05/28 03:04:16;;;;;;;11.87;10.97;;;;;;;9.02;91.77;101102.19;5034822;28;20471;-45
2022/05/28 03:06:43;;;;;;;13.37;12.10;;;;;;;9.09;92.20;101089.84;5034457;28;20468;-49
2022/05/28 03:09:11;;;;;;;13.50;12.60;;;;;;;9.12;93.22;101084.16;5034865;28;20446;-47
2022/05/28 03:11:39;;;;;;;12.93;11.70;;;;;;;9.12;92.39;101093.97;5034421;28;20890;-49
2022/05/28 03:14:07;;;;;;;14.80;11.80;;;;;;;9.09;92.65;101091.66;5034772;28;20921;-46
2022/05/28 03:16:35;;;;;;;11.90;11.20;;;;;;;9.10;92.38;101090.66;5034000;28;20468;-49
2022/05/28 03:19:03;;;;;;;13.07;12.17;;;;;;;9.13;92.47;101090.31;5034476;28;20440;-44
2022/05/28 03:21:32;;;;;;;12.93;11.97;;;;;;;9.14;93.26;101108.75;5034427;28;20436;-46
2022/05/28 03:24:00;;;;;;;13.53;11.67;;;;;;;9.18;93.65;101103.91;5034374;28;20984;-45
2022/05/28 03:26:30;;;;;;;12.37;11.20;;;;;;;9.19;92.12;101094.94;5034028;28;20470;-47
2022/05/28 03:28:58;;;;;;;12.43;11.67;;;;;;;9.22;91.56;101100.72;5034659;28;20428;-45
2022/05/28 03:31:27;;;;;;;13.27;12.00;;;;;;;9.31;92.07;101102.31;5034066;28;20436;-47
2022/05/28 03:33:56;;;;;;;12.13;11.30;;;;;;;9.37;91.55;101103.41;5034237;28;20922;-48
2022/05/28 03:36:24;;;;;;;21.67;13.53;;;;;;;9.44;91.12;101114.97;5033893;28;20468;-46
2022/05/28 03:38:53;;;;;;;13.60;12.27;;;;;;;9.45;90.31;101109.50;5034314;28;20798;-49
2022/05/28 03:41:21;;;;;;;12.43;11.20;;;;;;;9.49;91.01;101114.47;5033937;28;20436;-48
2022/05/28 03:43:48;;;;;;;11.93;11.03;;;;;;;9.59;91.25;101107.84;5033901;28;20476;-47
2022/05/28 03:46:21;;;;;;;15.90;11.20;;;;;;;9.52;88.32;101114.94;5033623;28;20472;-48
2022/05/28 03:48:49;;;;;;;12.60;11.50;;;;;;;9.58;91.71;101118.69;5033875;28;20428;-45
2022/05/28 03:51:17;;;;;;;12.83;12.00;;;;;;;9.58;90.97;101121.38;5033790;28;20424;-45
2022/05/28 03:53:44;;;;;;;13.60;12.43;;;;;;;9.61;91.42;101108.53;5033877;28;20428;-47
2022/05/28 03:56:13;;;;;;;12.40;11.10;;;;;;;9.61;90.23;101111.19;5033234;28;20832;-46
2022/05/28 03:58:42;;;;;;;13.57;12.23;;;;;;;9.63;90.23;101114.47;5034289;28;20429;-45
2022/05/28 04:01:09;;;;;;;10.93;10.23;;;;;;;9.73;90.08;101116.88;5033849;28;20436;-46
2022/05/28 04:03:37;;;;;;;10.37;9.87;;;;;;;9.79;87.51;101118.84;5033669;28;20518;-47
2022/05/28 04:06:05;;;;;;;16.83;11.20;;;;;;;9.85;88.87;101120.75;5033112;28;20462;-48
2022/05/28 04:08:33;;;;;;;11.17;10.07;;;;;;;9.82;86.81;101121.13;5033189;28;20451;-51
2022/05/28 04:11:00;;;;;;;11.57;10.43;;;;;;;9.83;85.21;101115.59;5033093;28;20434;-48
2022/05/28 04:13:29;;;;;;;10.50;9.83;;;;;;;9.88;85.78;101128.38;5033769;28;20439;-50
2022/05/28 04:15:57;;;;;;;11.53;10.60;;;;;;;9.98;87.87;101139.59;5033381;28;20428;-44
2022/05/28 04:18:25;;;;;;;11.07;10.07;;;;;;;10.01;86.17;101133.91;5033381;28;20931;-45
2022/05/28 04:20:52;;;;;;;11.07;10.03;;;;;;;10.38;84.84;101133.00;5033111;28;20432;-44
2022/05/28 04:23:20;;;;;;;11.20;9.73;;;;;;;11.02;81.03;101124.09;5033216;28;20842;-46
2022/05/28 04:25:47;;;;;;;9.00;8.50;;;;;;;11.69;77.80;101131.66;5033023;28;20435;-43
2022/05/28 04:28:15;;;;;;;10.00;9.13;;;;;;;12.27;72.22;101140.31;5033399;28;20432;-46
2022/05/28 04:30:44;;;;;;;12.83;7.00;;;;;;;12.62;70.21;101139.22;5032935;28;20941;-43
2022/05/28 04:33:12;;;;;;;7.93;6.17;;;;;;;12.99;69.95;101146.72;5033170;28;20424;-45
2022/05/28 04:35:39;;;;;;;8.73;6.80;;;;;;;12.56;69.14;101142.69;5033122;28;20432;-43
2022/05/28 04:38:07;;;;;;;12.03;9.33;;;;;;;12.02;72.43;101142.63;5032653;28;20455;-44
2022/05/28 04:40:35;;;;;;;10.47;9.20;;;;;;;11.70;73.12;101146.72;5032896;28;20432;-45
2022/05/28 04:43:02;;;;;;;8.03;7.20;;;;;;;11.91;75.98;101151.19;5031541;28;20460;-45
2022/05/28 04:45:30;;;;;;;7.53;6.97;;;;;;;11.81;73.60;101150.69;5030478;28;20455;-46
2022/05/28 04:47:59;;;;;;;16.47;7.97;;;;;;;12.03;74.59;101147.78;5031975;28;20490;-45
2022/05/28 04:50:27;;;;;;;10.50;6.47;;;;;;;12.46;75.17;101145.72;5030816;28;20443;-46
2022/05/28 04:52:54;;;;;;;11.97;6.47;;;;;;;12.69;71.91;101153.47;5032028;28;20937;-45
2022/05/28 04:55:22;;;;;;;9.03;6.30;;;;;;;12.76;71.01;101147.09;5029558;28;20429;-46
2022/05/28 04:57:53;;;;;;;10.77;6.07;;;;;;;13.15;70.19;101173.19;5031690;28;20988;-48
2022/05/28 05:00:24;;;;;;;18.57;7.97;;;;;;;13.11;67.14;101153.19;5032316;28;20435;-44
2022/05/28 05:02:52;;;;;;;10.63;7.30;;;;;;;13.03;69.22;101160.56;5031307;28;20443;-45
2022/05/28 05:05:22;;;;;;;11.80;6.60;;;;;;;13.45;67.82;101160.25;5032103;28;20475;-46
2022/05/28 05:07:49;;;;;;;8.70;6.10;;;;;;;13.59;65.49;101150.38;5031451;28;20474;-48
2022/05/28 05:10:17;;;;;;;15.80;7.13;;;;;;;14.03;64.52;101153.22;5032304;28;20428;-45
2022/05/28 05:12:45;;;;;;;11.03;6.00;;;;;;;14.59;62.06;101158.03;5032213;28;20447;-47
2022/05/28 05:15:13;;;;;;;12.20;6.67;;;;;;;14.67;61.31;101158.59;5032294;28;20432;-44
2022/05/28 05:17:41;;;;;;;9.93;6.00;;;;;;;14.82;58.41;101161.00;5030751;28;20463;-49
2022/05/28 05:20:11;;;;;;;8.77;6.40;;;;;;;14.53;58.41;101154.34;5030333;28;20429;-46
2022/05/28 05:22:40;;;;;;;11.50;7.03;;;;;;;14.84;58.29;101162.44;5029206;28;20431;-43
2022/05/28 05:25:09;;;;;;;10.20;7.47;;;;;;;14.85;57.18;101168.66;5031593;28;20475;-46
2022/05/28 05:27:37;;;;;;;8.63;6.73;;;;;;;15.18;57.55;101158.53;5031278;28;20474;-44
2022/05/28 05:30:06;;;;;;;12.20;6.53;;;;;;;15.22;56.72;101172.38;5031455;28;20431;-45
2022/05/28 05:32:34;;;;;;;10.13;6.70;;;;;;;15.19;56.65;101165.56;5031707;28;20435;-44
2022/05/28 05:35:01;;;;;;;12.43;6.97;;;;;;;15.39;56.07;101177.00;5031759;28;20428;-44
2022/05/28 05:37:29;;;;;;;7.00;5.93;;;;;;;15.49;54.85;101169.31;5031074;28;20464;-46
2022/05/28 05:39:58;;;;;;;12.37;6.07;;;;;;;15.68;54.07;101172.09;5031833;28;20438;-47
2022/05/28 05:42:26;;;;;;;12.93;5.73;;;;;;;15.92;53.33;101173.91;5031263;28;20432;-45
2022/05/28 05:44:55;;;;;;;10.97;6.27;;;;;;;15.95;52.73;101170.78;5030825;28;20475;-47
2022/05/28 05:47:22;;;;;;;12.80;6.27;;;;;;;15.84;53.18;101163.44;5029527;28;21007;-44
2022/05/28 05:49:51;;;;;;;15.97;7.30;;;;;;;15.38;56.84;101178.03;5031754;28;20943;-44
2022/05/28 05:52:19;;;;;;;13.70;6.87;;;;;;;14.50;57.11;101183.44;5031369;28;20436;-49
2022/05/28 05:54:51;;;;;;;11.43;6.50;;;;;;;14.55;58.85;101175.59;5020787;28;20895;-46
2022/05/28 05:57:20;;;;;;;8.37;6.10;;;;;;;14.57;57.78;101179.72;5027418;28;20539;-49
2022/05/28 05:59:48;;;;;;;11.30;6.00;;;;;;;14.52;57.49;101184.06;5029856;28;20436;-44
2022/05/28 06:02:16;;;;;;;10.10;6.33;;;;;;;15.24;57.13;101181.03;5035751;28;20435;-48
2022/05/28 06:04:43;;;;;;;8.40;6.73;;;;;;;14.62;59.49;101181.75;5030820;28;20482;-44
2022/05/28 06:07:11;;;;;;;10.60;5.70;;;;;;;14.65;57.94;101189.38;5030690;28;20470;-47
2022/05/28 06:09:38;;;;;;;11.10;6.10;;;;;;;14.10;60.08;101186.19;5031059;28;20436;-47
2022/05/28 06:12:07;;;;;;;11.67;5.97;;;;;;;14.32;58.83;101194.81;5031321;28;20436;-44
2022/05/28 06:14:36;;;;;;;12.63;5.30;;;;;;;14.67;57.30;101201.56;5031259;28;20434;-45
2022/05/28 06:17:04;;;;;;;9.93;6.23;;;;;;;15.07;55.56;101191.47;5029692;28;20467;-49
2022/05/28 06:19:33;;;;;;;17.07;6.80;;;;;;;15.65;54.52;101169.84;5031139;28;20432;-44
2022/05/28 06:22:01;;;;;;;15.73;6.40;;;;;;;15.28;54.00;101182.25;5030988;28;20439;-45
2022/05/28 06:24:29;;;;;;;14.03;6.97;;;;;;;15.56;54.79;101181.91;5031182;28;20471;-48
2022/05/28 06:26:59;;;;;;;7.77;5.27;;;;;;;15.67;53.69;101189.25;5030760;28;20463;-46
2022/05/28 06:29:27;;;;;;;14.90;6.33;;;;;;;15.64;55.17;101200.44;5031146;28;20423;-46
2022/05/28 06:31:56;;;;;;;11.83;5.57;;;;;;;14.77;56.33;101180.47;5031144;28;20821;-43
2022/05/28 06:34:24;;;;;;;11.70;6.97;;;;;;;14.13;59.74;101179.59;5035048;28;20432;-46
2022/05/28 06:36:53;;;;;;;10.17;5.50;;;;;;;13.63;60.61;101205.19;5034643;28;20460;-46
2022/05/28 06:39:22;;;;;;;8.87;6.57;;;;;;;13.34;59.79;101203.72;5035137;28;20432;-45
2022/05/28 06:41:49;;;;;;;8.67;5.83;;;;;;;14.15;60.23;101186.41;5034732;28;20439;-46
2022/05/28 06:44:17;;;;;;;10.07;5.20;;;;;;;14.86;58.44;101192.63;5032093;28;20439;-46
2022/05/28 06:46:44;;;;;;;10.80;5.90;;;;;;;15.61;55.36;101198.19;5033857;28;20467;-48
2022/05/28 06:49:13;;;;;;;12.30;5.73;;;;;;;16.17;53.42;101176.56;5034459;28;20432;-44
2022/05/28 06:51:41;;;;;;;10.93;6.20;;;;;;;15.64;55.55;101187.81;5034590;28;20442;-46
2022/05/28 06:54:09;;;;;;;10.13;5.70;;;;;;;15.40;55.19;101180.53;5034845;28;20431;-45
2022/05/28 06:56:37;;;;;;;9.40;5.43;;;;;;;15.84;55.58;101187.66;5033940;28;20470;-48
2022/05/28 06:59:05;;;;;;;12.67;6.03;;;;;;;14.80;57.81;101189.94;5034312;28;20432;-44
2022/05/28 07:01:36;;;;;;;12.73;5.50;;;;;;;14.44;59.03;101187.81;5033837;28;20963;-43
2022/05/28 07:04:05;;;;;;;10.30;5.63;;;;;;;14.10;58.74;101199.59;5034747;28;20475;-43
2022/05/28 07:06:34;;;;;;;19.60;7.50;;;;;;;13.64;64.26;101204.16;5033811;28;20470;-47
2022/05/28 07:09:02;;;;;;;9.07;5.73;;;;;;;12.86;65.33;101235.03;5034736;28;20432;-46
2022/05/28 07:11:29;;;;;;;11.93;5.90;;;;;;;12.69;67.44;101213.13;5031060;28;20446;-45
2022/05/28 07:13:57;;;;;;;12.57;6.40;;;;;;;12.51;69.10;101210.19;5034530;28;20433;-43
2022/05/28 07:16:25;;;;;;;11.07;6.83;;;;;;;12.20;71.43;101239.19;5032823;28;20472;-45
2022/05/28 07:18:52;;;;;;;15.33;6.73;;;;;;;12.19;72.49;101216.13;5034359;28;20440;-44
2022/05/28 07:21:20;;;;;;;11.30;6.47;;;;;;;12.36;73.74;101222.84;5022974;28;20934;-47
2022/05/28 07:23:49;;;;;;;11.97;6.23;;;;;;;13.56;67.00;101223.94;5034572;28;20432;-48
2022/05/28 07:26:19;;;;;;;15.47;7.47;;;;;;;14.18;63.39;101218.19;5033859;28;20490;-46
2022/05/28 07:28:47;;;;;;;13.40;6.03;;;;;;;14.69;60.79;101210.25;5034359;28;20485;-47
2022/05/28 07:31:18;;;;;;;7.00;6.00;;;;;;;14.55;61.98;101213.16;5033843;28;20461;-44
2022/05/28 07:33:47;;;;;;;10.73;6.17;;;;;;;14.26;62.49;101204.53;5034388;28;20424;-45
2022/05/28 07:36:17;;;;;;;10.40;6.00;;;;;;;13.25;65.48;101215.66;5033634;28;20472;-45
2022/05/28 07:38:46;;;;;;;18.17;6.87;;;;;;;12.82;71.85;101223.06;5034221;28;20799;-45
2022/05/28 07:41:17;;;;;;;13.93;8.60;;;;;;;12.10;72.39;101219.97;5034067;28;20804;-47
2022/05/28 07:43:45;;;;;;;10.97;7.90;;;;;;;11.87;76.53;101219.41;5032695;28;20431;-45
2022/05/28 07:46:16;;;;;;;9.43;7.03;;;;;;;11.83;73.66;101236.81;5033613;28;20471;-45
2022/05/28 07:48:45;;;;;;;13.77;6.93;;;;;;;11.99;72.79;101208.00;5034194;28;20432;-48
2022/05/28 07:51:14;;;;;;;10.47;6.43;;;;;;;11.93;72.45;101240.00;5034104;28;20436;-43
2022/05/28 07:53:42;;;;;;;16.00;6.90;;;;;;;12.08;73.60;101235.41;5033774;28;20438;-49
2022/05/28 07:56:10;;;;;;;8.47;6.77;;;;;;;12.12;73.47;101234.81;5033168;28;21199;-46
2022/05/28 07:58:41;;;;;;;10.73;7.30;;;;;;;12.32;72.35;101240.31;5033153;28;20437;-46
2022/05/28 08:01:09;;;;;;;9.43;6.70;;;;;;;12.42;70.12;101234.63;5033566;28;20459;-44
2022/05/28 08:03:37;;;;;;;11.93;6.80;;;;;;;12.42;70.65;101231.94;5033906;28;20478;-43
2022/05/28 08:06:04;;;;;;;11.33;6.60;;;;;;;12.43;72.22;101233.56;5032963;28;20491;-45
2022/05/28 08:08:32;;;;;;;20.13;7.33;;;;;;;12.15;72.12;101250.47;5032865;28;20948;-44
2022/05/28 08:11:00;;;;;;;9.00;6.30;;;;;;;12.05;72.96;101243.81;5033469;28;20825;-42
2022/05/28 08:13:28;;;;;;;13.70;7.07;;;;;;;12.10;72.18;101247.53;5031783;28;20436;-42
2022/05/28 08:15:57;;;;;;;14.93;7.27;;;;;;;12.29;71.89;101246.03;5032515;28;20930;-43
2022/05/28 08:18:26;;;;;;;13.17;6.03;;;;;;;12.31;69.58;101229.78;5033291;28;20952;-44
2022/05/28 08:23:40;;;;;;;9.03;6.00;;;;;;;12.50;71.05;101245.97;5032988;28;20428;-43
2022/05/28 08:26:09;;;;;;;8.03;6.27;;;;;;;12.39;69.67;101246.53;5032571;28;20468;-44
2022/05/28 08:28:39;;;;;;;14.30;6.50;;;;;;;12.52;71.33;101248.44;5033056;28;20472;-49
2022/05/28 08:31:08;;;;;;;15.33;6.90;;;;;;;12.39;69.83;101237.69;5032926;28;20815;-45
2022/05/28 08:33:36;;;;;;;10.20;5.80;;;;;;;12.40;67.95;101240.13;5033083;28;20446;-46
2022/05/28 08:36:05;;;;;;;8.37;5.70;;;;;;;12.33;70.18;101252.66;5032727;28;20800;-45
2022/05/28 08:38:33;;;;;;;9.80;6.33;;;;;;;12.52;70.91;101251.13;5032956;28;20440;-43
2022/05/28 08:41:05;;;;;;;17.17;7.87;;;;;;;12.63;72.39;101254.06;5032589;28;20956;-46
2022/05/28 08:43:35;;;;;;;11.83;7.17;;;;;;;12.66;72.00;101264.38;5032508;28;20451;-45
2022/05/28 08:46:04;;;;;;;9.30;6.40;;;;;;;12.40;69.99;101264.22;5032014;28;20464;-45
2022/05/28 08:48:41;;;;;;;11.43;6.60;;;;;;;12.20;71.30;101279.28;5032421;28;20431;-47
2022/05/28 08:51:12;;;;;;;10.03;5.60;;;;;;;12.11;70.13;101275.13;5029994;28;20436;-46
2022/05/28 08:53:46;;;;;;;8.17;6.40;;;;;;;12.17;73.67;101269.00;5013145;28;20532;-46
2022/05/28 08:56:19;;;;;;;11.17;6.90;;;;;;;12.29;71.91;101290.69;5011333;28;20469;-49
2022/05/28 08:58:48;;;;;;;10.27;7.30;;;;;;;12.22;70.94;101277.25;5013353;28;20429;-44
2022/05/28 09:01:20;;;;;;;16.17;6.43;;;;;;;12.45;69.42;101269.00;5012854;28;20583;-45
2022/05/28 09:03:54;;;;;;;7.83;6.07;;;;;;;12.71;72.04;101272.66;5012793;28;20823;-47
2022/05/28 09:06:25;;;;;;;12.60;6.83;;;;;;;12.92;67.21;101273.56;5011625;28;20887;-48
2022/05/28 09:08:56;;;;;;;9.87;6.40;;;;;;;12.82;66.20;101247.16;5012713;28;20433;-43
2022/05/28 09:11:32;;;;;;;8.93;6.67;;;;;;;12.76;70.95;101275.56;5012491;28;20433;-44
2022/05/28 09:14:21;;;;;;;9.83;7.77;;;;;;;12.57;71.89;101273.56;5012777;28;20512;-45
2022/05/28 09:16:51;;;;;;;12.20;7.10;;;;;;;12.13;73.92;101297.13;5011990;28;20476;-45
2022/05/28 09:19:23;;;;;;;13.20;6.90;;;;;;;11.99;74.29;101277.50;5012406;28;20429;-46
2022/05/28 09:21:51;;;;;;;15.23;7.00;;;;;;;12.09;73.68;101286.00;5012428;28;20443;-45
2022/05/28 09:24:24;;;;;;;12.10;7.03;;;;;;;12.16;72.50;101278.03;5012649;28;20460;-43
2022/05/28 09:27:04;;;;;;;14.20;6.47;;;;;;;12.48;74.02;101280.13;5011668;28;21193;-44
2022/05/28 09:30:14;;;;;;;10.73;6.03;;;;;;;12.59;70.82;101279.56;5012226;28;20435;-45
2022/05/28 09:33:02;;;;;;;8.53;6.10;;;;;;;12.56;71.59;101281.81;5012463;28;20463;-45
2022/05/28 09:35:48;;;;;;;8.10;6.13;;;;;;;12.47;72.11;101273.13;5012228;28;20440;-46
2022/05/28 09:38:21;;;;;;;13.87;6.07;;;;;;;12.26;70.69;101283.88;5012114;28;20472;-44
2022/05/28 09:40:51;;;;;;;12.47;6.13;;;;;;;12.18;71.52;101289.38;5012133;28;20948;-43
2022/05/28 09:43:50;;;;;;;12.77;5.70;;;;;;;12.31;71.12;101286.78;5012279;28;20429;-44
2022/05/28 09:46:27;;;;;;;10.97;6.30;;;;;;;12.40;72.44;101271.41;5003386;28;20843;-43
2022/05/28 09:48:59;;;;;;;12.30;5.70;;;;;;;12.52;69.28;101277.88;5012328;28;20872;-44
2022/05/28 09:51:30;;;;;;;12.27;6.10;;;;;;;12.36;69.78;101292.38;5010696;28;20433;-48
2022/05/28 09:54:17;;;;;;;9.50;5.77;;;;;;;12.54;69.42;101274.00;5012066;28;20433;-44
2022/05/28 09:56:51;;;;;;;5.57;5.07;;;;;;;12.74;69.51;101272.25;5011503;28;20898;-47
2022/05/28 09:59:23;;;;;;;7.90;5.47;;;;;;;12.84;68.65;101287.97;5012343;28;20428;-44
2022/05/28 10:01:57;;;;;;;13.10;6.07;;;;;;;13.09;67.94;101283.78;5011805;28;20796;-44
2022/05/28 10:04:31;;;;;;;13.03;6.20;;;;;;;12.93;70.67;101291.31;5012037;28;20433;-45
2022/05/28 10:07:04;;;;;;;7.67;5.93;;;;;;;12.76;73.53;101291.59;5010167;28;21037;-43
2022/05/28 10:09:35;;;;;;;8.33;6.13;;;;;;;12.98;70.55;101296.88;5012092;28;20460;-47
2022/05/28 10:12:14;;;;;;;19.20;6.67;;;;;;;13.06;69.40;101294.84;5011703;28;20455;-46
2022/05/28 10:14:41;;;;;;;11.90;6.97;;;;;;;12.95;71.74;101302.63;5011480;28;20429;-45
2022/05/28 10:17:10;;;;;;;8.00;6.77;;;;;;;12.63;69.86;101285.38;5011564;28;20469;-47
2022/05/28 10:19:42;;;;;;;12.20;7.27;;;;;;;12.84;71.43;101295.16;5011817;28;20984;-47
2022/05/28 10:22:18;;;;;;;10.40;7.60;;;;;;;13.07;70.61;101298.34;5011789;28;20442;-46
2022/05/28 10:24:48;;;;;;;8.00;7.20;;;;;;;13.32;69.87;101299.50;5011772;28;20440;-45
2022/05/28 10:27:27;;;;;;;10.50;6.50;;;;;;;13.12;69.35;101304.78;5011299;28;20487;-47
2022/05/28 10:29:57;;;;;;;11.80;7.17;;;;;;;13.00;69.41;101302.84;5011745;28;20429;-44
2022/05/28 10:32:32;;;;;;;15.47;9.20;;;;;;;12.97;71.55;101311.28;5011533;28;20433;-47
2022/05/28 10:35:02;;;;;;;9.87;7.27;;;;;;;12.88;71.15;101313.28;5011942;28;20429;-44
2022/05/28 10:37:31;;;;;;;8.70;5.67;;;;;;;12.78;71.43;101313.63;5011174;28;20471;-50
2022/05/28 10:40:07;;;;;;;10.57;6.83;;;;;;;13.05;71.12;101319.97;5011465;28;20444;-43
2022/05/28 10:42:37;;;;;;;19.23;7.43;;;;;;;13.40;69.38;101325.31;5011803;28;20443;-44
2022/05/28 10:45:06;;;;;;;17.23;7.40;;;;;;;13.54;70.86;101301.03;5011783;28;20445;-45
2022/05/28 10:48:05;;;;;;;8.40;6.80;;;;;;;13.59;69.28;101303.91;5010848;28;20503;-48
2022/05/28 10:50:43;;;;;;;7.10;6.10;;;;;;;13.55;70.39;101308.06;5011337;28;20432;-46
2022/05/28 10:53:28;;;;;;;16.57;6.43;;;;;;;13.14;70.59;101312.66;5011782;28;20423;-45
2022/05/28 10:56:14;;;;;;;19.60;7.17;;;;;;;13.15;74.16;101319.63;5010821;28;20417;-47
2022/05/28 10:58:57;;;;;;;12.30;6.80;;;;;;;13.05;75.75;101332.56;5011733;28;20425;-43
2022/05/28 11:01:39;;;;;;;8.17;5.77;;;;;;;12.80;73.89;101309.94;5011228;28;20433;-46
2022/05/28 11:04:57;;;;;;;11.23;6.13;;;;;;;12.64;73.52;101311.09;5011506;28;20439;-46
2022/05/28 11:07:36;;;;;;;14.13;7.33;;;;;;;12.77;73.86;101320.03;4974357;28;20496;-45
2022/05/28 11:10:17;;;;;;;10.73;7.57;;;;;;;12.80;73.42;101308.09;5011544;28;20433;-44
2022/05/28 11:12:58;;;;;;;16.73;8.10;;;;;;;12.95;74.78;101313.34;5010680;28;20442;-45
2022/05/28 11:15:50;;;;;;;10.50;6.10;;;;;;;13.01;73.68;101313.38;5023286;28;20432;-44
2022/05/28 11:18:54;;;;;;;15.20;7.10;;;;;;;12.91;72.79;101320.09;5031604;28;20517;-46
2022/05/28 11:21:38;;;;;;;13.63;6.57;;;;;;;13.18;73.51;101332.63;5031576;28;20546;-44
2022/05/28 11:24:15;;;;;;;10.83;6.10;;;;;;;13.38;71.23;101327.38;5033076;28;20428;-47
2022/05/28 11:27:01;;;;;;;13.90;6.63;;;;;;;13.57;70.73;101321.22;5033089;28;20471;-45
2022/05/28 11:29:41;;;;;;;8.73;5.87;;;;;;;13.51;69.39;101328.22;5034279;28;20446;-43
2022/05/28 11:32:14;;;;;;;12.23;6.70;;;;;;;13.00;71.11;101332.28;5034167;28;20466;-45
2022/05/28 11:34:52;;;;;;;16.63;6.57;;;;;;;12.62;72.39;101339.91;5033864;28;20428;-45
2022/05/28 11:37:24;;;;;;;12.00;7.37;;;;;;;12.40;73.56;101333.75;5033640;28;20462;-44
2022/05/28 11:39:59;;;;;;;20.17;7.70;;;;;;;12.50;77.86;101346.81;5033988;28;20429;-49
2022/05/28 11:42:36;;;;;;;18.97;7.87;;;;;;;12.41;75.77;101347.97;5034033;28;20432;-44